sensor_id;sensor_type;location;lat;lon;timestamp;pressure;altitude;pressure_sealevel;temperature;humidity
79331;BME280;68797;49.782;19.054;2023-06-14T00:02:00;97060.50;;;9.48;73.83
79331;BME280;68797;49.782;19.054;2023-06-14T00:04:27;97072.72;;;9.52;74.39
79331;BME280;68797;49.782;19.054;2023-06-14T00:06:55;97067.47;;;9.51;74.56
79331;BME280;68797;49.782;19.054;2023-06-14T00:09:23;97062.31;;;9.46;74.60
79331;BME280;68797;49.782;19.054;2023-06-14T00:11:51;97057.03;;;9.46;74.87
79331;BME280;68797;49.782;19.054;2023-06-14T00:14:18;97059.84;;;9.40;75.06
79331;BME280;68797;49.782;19.054;2023-06-14T00:16:45;97079.78;;;9.52;74.95
79331;BME280;68797;49.782;19.054;2023-06-14T00:19:11;97071.81;;;9.53;75.11
79331;BME280;68797;49.782;19.054;2023-06-14T00:21:38;97071.94;;;9.49;75.12
79331;BME280;68797;49.782;19.054;2023-06-14T00:24:08;97057.31;;;9.37;75.46
79331;BME280;68797;49.782;19.054;2023-06-14T00:26:35;97054.00;;;9.29;75.11
79331;BME280;68797;49.782;19.054;2023-06-14T00:29:03;97067.25;;;9.29;75.35
79331;BME280;68797;49.782;19.054;2023-06-14T00:31:31;97049.00;;;9.20;75.24
79331;BME280;68797;49.782;19.054;2023-06-14T00:33:58;97048.13;;;9.19;75.10
79331;BME280;68797;49.782;19.054;2023-06-14T00:40:44;97057.44;;;9.03;75.87
79331;BME280;68797;49.782;19.054;2023-06-14T00:43:13;97051.13;;;9.07;75.57
79331;BME280;68797;49.782;19.054;2023-06-14T00:45:40;97041.41;;;8.78;76.13
79331;BME280;68797;49.782;19.054;2023-06-14T00:48:09;97057.59;;;8.98;75.91
79331;BME280;68797;49.782;19.054;2023-06-14T00:50:44;97054.03;;;8.99;76.38
79331;BME280;68797;49.782;19.054;2023-06-14T00:53:16;97059.16;;;9.04;75.86
79331;BME280;68797;49.782;19.054;2023-06-14T00:55:50;97049.75;;;8.94;76.14
79331;BME280;68797;49.782;19.054;2023-06-14T00:58:16;97062.63;;;9.06;75.92
79331;BME280;68797;49.782;19.054;2023-06-14T01:00:44;97050.63;;;8.94;75.59
79331;BME280;68797;49.782;19.054;2023-06-14T01:03:11;97055.75;;;9.00;75.87
79331;BME280;68797;49.782;19.054;2023-06-14T01:05:41;97048.72;;;8.99;75.27
79331;BME280;68797;49.782;19.054;2023-06-14T01:08:28;97050.69;;;8.93;75.79
79331;BME280;68797;49.782;19.054;2023-06-14T01:11:12;97053.06;;;9.02;75.18
79331;BME280;68797;49.782;19.054;2023-06-14T01:13:45;97041.72;;;8.97;75.56
79331;BME280;68797;49.782;19.054;2023-06-14T01:16:13;97044.31;;;9.00;75.48
79331;BME280;68797;49.782;19.054;2023-06-14T01:18:40;97054.63;;;9.09;75.95
79331;BME280;68797;49.782;19.054;2023-06-14T01:21:24;97053.72;;;9.09;75.64
79331;BME280;68797;49.782;19.054;2023-06-14T01:23:51;97052.81;;;9.11;75.73
79331;BME280;68797;49.782;19.054;2023-06-14T01:26:35;97045.38;;;8.93;75.99
79331;BME280;68797;49.782;19.054;2023-06-14T01:29:05;97042.03;;;8.86;75.91
79331;BME280;68797;49.782;19.054;2023-06-14T01:31:32;97042.28;;;8.79;76.62
79331;BME280;68797;49.782;19.054;2023-06-14T01:34:07;97046.56;;;8.83;76.36
79331;BME280;68797;49.782;19.054;2023-06-14T01:36:40;97036.03;;;8.81;76.09
79331;BME280;68797;49.782;19.054;2023-06-14T01:39:07;97037.84;;;8.79;75.86
79331;BME280;68797;49.782;19.054;2023-06-14T01:41:35;97037.25;;;8.69;75.88
79331;BME280;68797;49.782;19.054;2023-06-14T01:44:02;97059.13;;;8.74;76.15
79331;BME280;68797;49.782;19.054;2023-06-14T01:46:35;97035.97;;;8.52;76.86
79331;BME280;68797;49.782;19.054;2023-06-14T01:49:03;97042.00;;;8.57;76.50
79331;BME280;68797;49.782;19.054;2023-06-14T01:51:30;97035.84;;;8.56;76.93
79331;BME280;68797;49.782;19.054;2023-06-14T01:53:57;97038.25;;;8.65;76.65
79331;BME280;68797;49.782;19.054;2023-06-14T01:56:24;97042.63;;;8.66;76.14
79331;BME280;68797;49.782;19.054;2023-06-14T01:58:53;97041.00;;;8.61;76.18
79331;BME280;68797;49.782;19.054;2023-06-14T02:01:21;97026.47;;;8.44;76.93
79331;BME280;68797;49.782;19.054;2023-06-14T02:03:50;97041.19;;;8.55;76.16
79331;BME280;68797;49.782;19.054;2023-06-14T02:06:19;97048.94;;;8.61;76.04
79331;BME280;68797;49.782;19.054;2023-06-14T02:08:45;97037.78;;;8.50;76.73
79331;BME280;68797;49.782;19.054;2023-06-14T02:11:12;97042.97;;;8.53;76.48
79331;BME280;68797;49.782;19.054;2023-06-14T02:13:38;97043.97;;;8.49;76.54
79331;BME280;68797;49.782;19.054;2023-06-14T02:16:07;97053.56;;;8.53;76.06
79331;BME280;68797;49.782;19.054;2023-06-14T02:18:33;97042.38;;;8.43;76.85
79331;BME280;68797;49.782;19.054;2023-06-14T02:21:00;97042.44;;;8.40;76.57
79331;BME280;68797;49.782;19.054;2023-06-14T02:23:26;97039.75;;;8.41;76.11
79331;BME280;68797;49.782;19.054;2023-06-14T02:25:53;97037.25;;;8.37;76.12
79331;BME280;68797;49.782;19.054;2023-06-14T02:28:19;97044.22;;;8.39;76.32
79331;BME280;68797;49.782;19.054;2023-06-14T02:30:46;97057.25;;;8.47;76.26
79331;BME280;68797;49.782;19.054;2023-06-14T02:33:12;97056.28;;;8.50;75.81
79331;BME280;68797;49.782;19.054;2023-06-14T02:35:41;97045.22;;;8.35;75.63
79331;BME280;68797;49.782;19.054;2023-06-14T02:38:07;97035.47;;;8.37;76.11
79331;BME280;68797;49.782;19.054;2023-06-14T02:40:34;97040.44;;;8.50;76.07
79331;BME280;68797;49.782;19.054;2023-06-14T02:43:00;97053.56;;;8.53;76.27
79331;BME280;68797;49.782;19.054;2023-06-14T02:45:28;97036.97;;;8.48;76.20
79331;BME280;68797;49.782;19.054;2023-06-14T02:47:54;97036.91;;;8.49;76.00
79331;BME280;68797;49.782;19.054;2023-06-14T02:50:22;97043.03;;;8.51;76.20
79331;BME280;68797;49.782;19.054;2023-06-14T02:52:50;97026.63;;;8.38;76.26
79331;BME280;68797;49.782;19.054;2023-06-14T02:55:17;97043.25;;;8.43;76.44
79331;BME280;68797;49.782;19.054;2023-06-14T02:57:44;97052.81;;;8.48;76.81
79331;BME280;68797;49.782;19.054;2023-06-14T03:00:11;97043.50;;;8.34;76.57
79331;BME280;68797;49.782;19.054;2023-06-14T03:02:41;97041.47;;;8.44;76.14
79331;BME280;68797;49.782;19.054;2023-06-14T03:05:09;97034.50;;;8.40;76.10
79331;BME280;68797;49.782;19.054;2023-06-14T03:07:36;97027.25;;;8.48;76.83
79331;BME280;68797;49.782;19.054;2023-06-14T03:10:08;97035.84;;;8.56;76.60
79331;BME280;68797;49.782;19.054;2023-06-14T03:12:40;97045.31;;;8.63;76.36
79331;BME280;68797;49.782;19.054;2023-06-14T03:15:09;97031.53;;;8.54;76.67
79331;BME280;68797;49.782;19.054;2023-06-14T03:17:42;97031.53;;;8.54;76.16
79331;BME280;68797;49.782;19.054;2023-06-14T03:20:14;97032.59;;;8.47;77.03
79331;BME280;68797;49.782;19.054;2023-06-14T03:22:41;97027.09;;;8.54;76.13
79331;BME280;68797;49.782;19.054;2023-06-14T03:25:12;97047.09;;;8.63;75.40
79331;BME280;68797;49.782;19.054;2023-06-14T03:27:41;97036.66;;;8.58;75.98
79331;BME280;68797;49.782;19.054;2023-06-14T03:30:08;97044.06;;;8.78;75.30
79331;BME280;68797;49.782;19.054;2023-06-14T03:32:34;97030.81;;;8.78;75.65
79331;BME280;68797;49.782;19.054;2023-06-14T03:35:05;97048.22;;;8.87;75.32
79331;BME280;68797;49.782;19.054;2023-06-14T03:37:32;97033.88;;;8.63;75.14
79331;BME280;68797;49.782;19.054;2023-06-14T03:39:59;97043.41;;;8.70;75.69
79331;BME280;68797;49.782;19.054;2023-06-14T03:42:27;97043.75;;;8.89;75.32
79331;BME280;68797;49.782;19.054;2023-06-14T03:44:55;97056.44;;;9.07;75.03
79331;BME280;68797;49.782;19.054;2023-06-14T03:47:22;97052.06;;;9.06;74.58
79331;BME280;68797;49.782;19.054;2023-06-14T03:49:50;97050.22;;;9.08;74.93
79331;BME280;68797;49.782;19.054;2023-06-14T03:52:17;97054.53;;;9.12;75.18
79331;BME280;68797;49.782;19.054;2023-06-14T03:54:46;97050.00;;;9.16;75.11
79331;BME280;68797;49.782;19.054;2023-06-14T03:57:15;97058.31;;;9.33;74.80
79331;BME280;68797;49.782;19.054;2023-06-14T03:59:43;97058.88;;;9.44;74.01
79331;BME280;68797;49.782;19.054;2023-06-14T04:02:10;97050.09;;;9.42;74.53
79331;BME280;68797;49.782;19.054;2023-06-14T04:04:37;97052.44;;;9.51;75.03
79331;BME280;68797;49.782;19.054;2023-06-14T04:07:05;97061.66;;;9.68;73.72
79331;BME280;68797;49.782;19.054;2023-06-14T04:09:32;97065.06;;;9.43;74.34
79331;BME280;68797;49.782;19.054;2023-06-14T04:11:59;97056.31;;;9.69;74.10
79331;BME280;68797;49.782;19.054;2023-06-14T04:14:28;97059.59;;;9.77;73.60
79331;BME280;68797;49.782;19.054;2023-06-14T04:16:56;97056.88;;;9.79;73.31
79331;BME280;68797;49.782;19.054;2023-06-14T04:19:23;97054.94;;;9.84;74.06
79331;BME280;68797;49.782;19.054;2023-06-14T04:21:50;97061.63;;;9.96;73.08
79331;BME280;68797;49.782;19.054;2023-06-14T04:24:18;97074.00;;;9.95;72.53
79331;BME280;68797;49.782;19.054;2023-06-14T04:26:51;97054.53;;;9.98;71.57
79331;BME280;68797;49.782;19.054;2023-06-14T04:29:18;97074.13;;;9.92;71.34
79331;BME280;68797;49.782;19.054;2023-06-14T04:31:51;97074.69;;;10.02;71.26
79331;BME280;68797;49.782;19.054;2023-06-14T04:37:49;97084.16;;;10.37;71.73
79331;BME280;68797;49.782;19.054;2023-06-14T04:40:17;97059.47;;;10.35;70.53
79331;BME280;68797;49.782;19.054;2023-06-14T04:42:47;97064.91;;;10.32;71.20
79331;BME280;68797;49.782;19.054;2023-06-14T04:45:26;97068.84;;;10.45;70.16
79331;BME280;68797;49.782;19.054;2023-06-14T04:48:20;97076.13;;;10.65;70.03
79331;BME280;68797;49.782;19.054;2023-06-14T04:50:49;97074.31;;;10.90;69.54
79331;BME280;68797;49.782;19.054;2023-06-14T04:53:20;97075.06;;;10.94;68.67
79331;BME280;68797;49.782;19.054;2023-06-14T04:55:50;97068.53;;;10.79;68.11
79331;BME280;68797;49.782;19.054;2023-06-14T04:58:18;97089.34;;;10.66;68.67
79331;BME280;68797;49.782;19.054;2023-06-14T05:00:45;97065.69;;;10.34;69.33
79331;BME280;68797;49.782;19.054;2023-06-14T05:03:15;97074.22;;;10.43;69.73
79331;BME280;68797;49.782;19.054;2023-06-14T05:05:47;97067.81;;;10.74;70.55
79331;BME280;68797;49.782;19.054;2023-06-14T05:08:27;97090.09;;;11.18;68.53
79331;BME280;68797;49.782;19.054;2023-06-14T05:10:55;97097.25;;;11.40;68.54
79331;BME280;68797;49.782;19.054;2023-06-14T05:13:46;97080.31;;;11.20;67.77
79331;BME280;68797;49.782;19.054;2023-06-14T05:16:14;97084.66;;;11.68;68.30
79331;BME280;68797;49.782;19.054;2023-06-14T05:18:43;97093.34;;;11.50;68.76
79331;BME280;68797;49.782;19.054;2023-06-14T05:21:34;97106.63;;;11.50;69.00
79331;BME280;68797;49.782;19.054;2023-06-14T05:24:04;97089.94;;;11.23;68.38
79331;BME280;68797;49.782;19.054;2023-06-14T05:26:32;97106.53;;;11.75;67.98
79331;BME280;68797;49.782;19.054;2023-06-14T05:29:01;97094.66;;;12.07;67.96
79331;BME280;68797;49.782;19.054;2023-06-14T05:31:32;97087.78;;;12.45;68.35
79331;BME280;68797;49.782;19.054;2023-06-14T05:34:04;97105.50;;;12.66;66.21
79331;BME280;68797;49.782;19.054;2023-06-14T05:36:33;97089.25;;;12.30;66.93
79331;BME280;68797;49.782;19.054;2023-06-14T05:39:14;97082.78;;;12.15;66.03
79331;BME280;68797;49.782;19.054;2023-06-14T05:41:42;97088.13;;;12.58;65.98
79331;BME280;68797;49.782;19.054;2023-06-14T05:44:11;97094.03;;;13.25;64.26
79331;BME280;68797;49.782;19.054;2023-06-14T05:47:01;97080.47;;;13.31;65.39
79331;BME280;68797;49.782;19.054;2023-06-14T05:55:35;97081.59;;;12.85;65.27
79331;BME280;68797;49.782;19.054;2023-06-14T06:03:25;97111.88;;;12.62;66.44
79331;BME280;68797;49.782;19.054;2023-06-14T06:06:57;97103.13;;;12.38;67.56
79331;BME280;68797;49.782;19.054;2023-06-14T06:14:03;97114.22;;;13.11;65.85
79331;BME280;68797;49.782;19.054;2023-06-14T06:17:26;97102.34;;;13.18;65.73
79331;BME280;68797;49.782;19.054;2023-06-14T06:19:55;97111.63;;;13.29;64.87
79331;BME280;68797;49.782;19.054;2023-06-14T06:22:21;97118.69;;;13.30;65.20
79331;BME280;68797;49.782;19.054;2023-06-14T06:24:47;97097.25;;;12.93;67.94
79331;BME280;68797;49.782;19.054;2023-06-14T06:27:13;97106.78;;;12.98;67.72
79331;BME280;68797;49.782;19.054;2023-06-14T06:29:42;97100.84;;;13.12;66.25
79331;BME280;68797;49.782;19.054;2023-06-14T06:32:09;97130.06;;;13.34;65.81
79331;BME280;68797;49.782;19.054;2023-06-14T06:34:58;97131.50;;;13.41;65.87
79331;BME280;68797;49.782;19.054;2023-06-14T06:37:30;97108.53;;;13.38;66.87
79331;BME280;68797;49.782;19.054;2023-06-14T06:40:02;97135.31;;;13.56;69.13
79331;BME280;68797;49.782;19.054;2023-06-14T06:42:41;97137.91;;;13.57;68.42
79331;BME280;68797;49.782;19.054;2023-06-14T06:45:14;97124.50;;;13.59;66.50
79331;BME280;68797;49.782;19.054;2023-06-14T06:47:41;97126.66;;;13.70;64.82
79331;BME280;68797;49.782;19.054;2023-06-14T06:50:10;97135.81;;;13.83;64.71
79331;BME280;68797;49.782;19.054;2023-06-14T06:52:40;97151.81;;;13.83;64.62
79331;BME280;68797;49.782;19.054;2023-06-14T06:55:08;97139.50;;;13.80;63.60
79331;BME280;68797;49.782;19.054;2023-06-14T06:57:37;97141.72;;;13.71;65.10
79331;BME280;68797;49.782;19.054;2023-06-14T07:00:04;97140.09;;;13.87;63.89
79331;BME280;68797;49.782;19.054;2023-06-14T07:02:38;97138.56;;;14.00;64.59
79331;BME280;68797;49.782;19.054;2023-06-14T07:05:04;97133.69;;;14.27;62.19
79331;BME280;68797;49.782;19.054;2023-06-14T07:07:33;97139.09;;;14.25;62.07
79331;BME280;68797;49.782;19.054;2023-06-14T07:10:01;97151.75;;;14.22;63.49
79331;BME280;68797;49.782;19.054;2023-06-14T07:12:34;97138.91;;;14.11;65.48
79331;BME280;68797;49.782;19.054;2023-06-14T07:15:06;97139.59;;;13.98;65.65
79331;BME280;68797;49.782;19.054;2023-06-14T07:17:34;97150.38;;;14.13;66.97
79331;BME280;68797;49.782;19.054;2023-06-14T07:20:03;97141.31;;;13.99;67.93
79331;BME280;68797;49.782;19.054;2023-06-14T07:22:53;97159.81;;;13.64;70.85
79331;BME280;68797;49.782;19.054;2023-06-14T07:25:23;97149.56;;;13.74;68.66
79331;BME280;68797;49.782;19.054;2023-06-14T07:27:52;97154.41;;;13.84;69.70
79331;BME280;68797;49.782;19.054;2023-06-14T07:30:27;97173.00;;;14.05;68.31
79331;BME280;68797;49.782;19.054;2023-06-14T07:32:56;97159.59;;;14.25;67.69
79331;BME280;68797;49.782;19.054;2023-06-14T07:35:22;97158.34;;;14.51;67.80
79331;BME280;68797;49.782;19.054;2023-06-14T07:37:49;97167.09;;;14.72;67.11
79331;BME280;68797;49.782;19.054;2023-06-14T07:40:15;97157.41;;;15.23;68.63
79331;BME280;68797;49.782;19.054;2023-06-14T07:42:42;97142.13;;;15.25;65.59
79331;BME280;68797;49.782;19.054;2023-06-14T07:45:09;97148.81;;;15.33;66.71
79331;BME280;68797;49.782;19.054;2023-06-14T07:47:35;97152.47;;;16.46;63.98
79331;BME280;68797;49.782;19.054;2023-06-14T07:50:04;97136.28;;;16.79;62.21
79331;BME280;68797;49.782;19.054;2023-06-14T07:52:39;97130.91;;;17.53;60.40
79331;BME280;68797;49.782;19.054;2023-06-14T07:55:06;97145.19;;;17.09;57.39
79331;BME280;68797;49.782;19.054;2023-06-14T07:57:32;97154.72;;;16.69;58.35
79331;BME280;68797;49.782;19.054;2023-06-14T08:00:02;97161.88;;;16.21;60.53
79331;BME280;68797;49.782;19.054;2023-06-14T08:02:39;97153.06;;;17.12;61.36
79331;BME280;68797;49.782;19.054;2023-06-14T08:05:10;97154.69;;;16.85;62.42
79331;BME280;68797;49.782;19.054;2023-06-14T08:07:38;97138.53;;;16.71;63.41
79331;BME280;68797;49.782;19.054;2023-06-14T08:10:05;97156.72;;;17.40;56.53
79331;BME280;68797;49.782;19.054;2023-06-14T08:12:33;97156.81;;;17.83;58.77
79331;BME280;68797;49.782;19.054;2023-06-14T08:15:01;97134.75;;;17.63;57.66
79331;BME280;68797;49.782;19.054;2023-06-14T08:17:29;97131.38;;;17.31;56.53
79331;BME280;68797;49.782;19.054;2023-06-14T08:19:55;97156.78;;;17.10;56.65
79331;BME280;68797;49.782;19.054;2023-06-14T08:22:23;97132.22;;;17.46;58.46
79331;BME280;68797;49.782;19.054;2023-06-14T08:24:55;97135.25;;;17.26;57.07
79331;BME280;68797;49.782;19.054;2023-06-14T08:27:24;97136.50;;;17.20;59.25
79331;BME280;68797;49.782;19.054;2023-06-14T08:29:50;97142.31;;;17.57;56.05
79331;BME280;68797;49.782;19.054;2023-06-14T08:32:17;97154.03;;;17.84;56.95
79331;BME280;68797;49.782;19.054;2023-06-14T08:34:43;97134.31;;;17.27;58.32
79331;BME280;68797;49.782;19.054;2023-06-14T08:37:10;97148.91;;;16.77;60.26
79331;BME280;68797;49.782;19.054;2023-06-14T08:39:39;97146.91;;;17.40;58.33
79331;BME280;68797;49.782;19.054;2023-06-14T08:42:07;97147.16;;;17.36;56.72
79331;BME280;68797;49.782;19.054;2023-06-14T08:44:37;97152.81;;;17.31;56.83
79331;BME280;68797;49.782;19.054;2023-06-14T08:47:07;97148.84;;;17.08;57.66
79331;BME280;68797;49.782;19.054;2023-06-14T08:53:46;97139.75;;;17.98;57.17
79331;BME280;68797;49.782;19.054;2023-06-14T08:56:15;97151.56;;;18.37;56.48
79331;BME280;68797;49.782;19.054;2023-06-14T08:58:44;97147.88;;;18.66;54.39
79331;BME280;68797;49.782;19.054;2023-06-14T09:01:16;97139.63;;;18.69;56.32
79331;BME280;68797;49.782;19.054;2023-06-14T09:03:43;97147.44;;;18.86;55.32
79331;BME280;68797;49.782;19.054;2023-06-14T09:06:17;97149.41;;;18.15;55.20
79331;BME280;68797;49.782;19.054;2023-06-14T09:08:47;97158.28;;;17.74;55.87
79331;BME280;68797;49.782;19.054;2023-06-14T09:11:20;97157.84;;;17.52;55.54
79331;BME280;68797;49.782;19.054;2023-06-14T09:13:49;97164.78;;;17.40;57.05
79331;BME280;68797;49.782;19.054;2023-06-14T09:16:37;97159.81;;;17.34;59.83
79331;BME280;68797;49.782;19.054;2023-06-14T09:19:08;97164.97;;;17.37;60.54
79331;BME280;68797;49.782;19.054;2023-06-14T09:21:57;97164.88;;;17.38;58.77
79331;BME280;68797;49.782;19.054;2023-06-14T09:24:24;97167.66;;;17.07;60.00
79331;BME280;68797;49.782;19.054;2023-06-14T09:26:55;97153.06;;;17.12;61.83
79331;BME280;68797;49.782;19.054;2023-06-14T09:29:24;97166.53;;;17.41;62.39
79331;BME280;68797;49.782;19.054;2023-06-14T09:31:53;97145.84;;;17.57;63.19
79331;BME280;68797;49.782;19.054;2023-06-14T09:34:24;97155.63;;;17.58;58.77
79331;BME280;68797;49.782;19.054;2023-06-14T09:36:50;97156.94;;;17.37;59.18
79331;BME280;68797;49.782;19.054;2023-06-14T09:39:17;97156.56;;;16.83;59.80
79331;BME280;68797;49.782;19.054;2023-06-14T09:41:44;97152.22;;;16.19;62.09
79331;BME280;68797;49.782;19.054;2023-06-14T09:44:13;97170.31;;;16.61;66.32
79331;BME280;68797;49.782;19.054;2023-06-14T09:46:40;97145.25;;;17.38;58.91
79331;BME280;68797;49.782;19.054;2023-06-14T09:49:08;97154.31;;;17.21;57.81
79331;BME280;68797;49.782;19.054;2023-06-14T09:51:37;97162.53;;;17.18;57.63
79331;BME280;68797;49.782;19.054;2023-06-14T09:54:08;97146.38;;;17.20;56.67
79331;BME280;68797;49.782;19.054;2023-06-14T09:56:47;97162.28;;;17.37;61.79
79331;BME280;68797;49.782;19.054;2023-06-14T09:59:16;97135.72;;;17.18;57.69
79331;BME280;68797;49.782;19.054;2023-06-14T10:01:48;97155.09;;;17.23;57.35
79331;BME280;68797;49.782;19.054;2023-06-14T10:04:19;97154.59;;;17.17;57.89
79331;BME280;68797;49.782;19.054;2023-06-14T10:06:50;97165.88;;;17.07;59.07
79331;BME280;68797;49.782;19.054;2023-06-14T10:09:21;97153.91;;;17.13;60.70
79331;BME280;68797;49.782;19.054;2023-06-14T10:11:51;97151.84;;;16.72;59.49
79331;BME280;68797;49.782;19.054;2023-06-14T10:14:18;97148.50;;;16.53;61.78
79331;BME280;68797;49.782;19.054;2023-06-14T10:16:58;97144.94;;;16.68;60.56
79331;BME280;68797;49.782;19.054;2023-06-14T10:19:31;97164.47;;;16.86;61.28
79331;BME280;68797;49.782;19.054;2023-06-14T10:22:06;97155.09;;;16.93;61.43
79331;BME280;68797;49.782;19.054;2023-06-14T10:24:43;97146.09;;;17.38;58.50
79331;BME280;68797;49.782;19.054;2023-06-14T10:27:14;97149.63;;;17.69;56.63
79331;BME280;68797;49.782;19.054;2023-06-14T10:32:25;97142.44;;;17.98;58.81
79331;BME280;68797;49.782;19.054;2023-06-14T10:35:00;97154.34;;;17.50;59.24
79331;BME280;68797;49.782;19.054;2023-06-14T10:37:30;97137.28;;;17.36;60.58
79331;BME280;68797;49.782;19.054;2023-06-14T10:40:00;97153.06;;;17.27;59.23
79331;BME280;68797;49.782;19.054;2023-06-14T10:42:31;97146.13;;;16.63;61.07
79331;BME280;68797;49.782;19.054;2023-06-14T10:44:58;97152.13;;;16.52;61.40
79331;BME280;68797;49.782;19.054;2023-06-14T10:47:41;97150.97;;;16.72;61.40
79331;BME280;68797;49.782;19.054;2023-06-14T10:51:06;97131.78;;;17.09;59.38
79331;BME280;68797;49.782;19.054;2023-06-14T11:01:29;97137.59;;;17.02;61.38
79331;BME280;68797;49.782;19.054;2023-06-14T11:04:10;97149.16;;;16.72;61.61
79331;BME280;68797;49.782;19.054;2023-06-14T11:06:48;97144.69;;;16.57;61.90
79331;BME280;68797;49.782;19.054;2023-06-14T11:12:30;97141.72;;;16.62;62.53
79331;BME280;68797;49.782;19.054;2023-06-14T11:15:00;97143.13;;;16.69;62.46
79331;BME280;68797;49.782;19.054;2023-06-14T11:17:30;97151.41;;;16.64;63.79
79331;BME280;68797;49.782;19.054;2023-06-14T11:20:12;97159.97;;;16.71;61.86
79331;BME280;68797;49.782;19.054;2023-06-14T11:22:45;97145.47;;;16.43;62.46
79331;BME280;68797;49.782;19.054;2023-06-14T11:25:17;97132.84;;;16.45;62.00
79331;BME280;68797;49.782;19.054;2023-06-14T11:27:48;97127.22;;;16.66;62.26
79331;BME280;68797;49.782;19.054;2023-06-14T11:30:26;97130.94;;;16.79;59.65
79331;BME280;68797;49.782;19.054;2023-06-14T11:32:53;97131.28;;;17.03;58.91
79331;BME280;68797;49.782;19.054;2023-06-14T11:35:23;97144.69;;;17.47;60.41
79331;BME280;68797;49.782;19.054;2023-06-14T11:37:56;97133.25;;;17.74;57.99
79331;BME280;68797;49.782;19.054;2023-06-14T11:40:44;97124.69;;;17.53;57.42
79331;BME280;68797;49.782;19.054;2023-06-14T11:43:12;97127.44;;;17.37;56.48
79331;BME280;68797;49.782;19.054;2023-06-14T11:45:48;97127.81;;;17.31;56.10
79331;BME280;68797;49.782;19.054;2023-06-14T11:48:19;97134.41;;;17.25;55.17
79331;BME280;68797;49.782;19.054;2023-06-14T11:50:49;97115.00;;;17.06;57.35
79331;BME280;68797;49.782;19.054;2023-06-14T11:53:16;97130.88;;;16.95;61.05
79331;BME280;68797;49.782;19.054;2023-06-14T11:55:46;97138.16;;;16.93;62.00
79331;BME280;68797;49.782;19.054;2023-06-14T11:58:14;97126.31;;;16.97;59.53
79331;BME280;68797;49.782;19.054;2023-06-14T12:00:49;97123.75;;;17.09;57.63
79331;BME280;68797;49.782;19.054;2023-06-14T12:03:22;97141.50;;;17.26;56.94
79331;BME280;68797;49.782;19.054;2023-06-14T12:05:50;97106.06;;;17.21;57.60
79331;BME280;68797;49.782;19.054;2023-06-14T12:08:19;97112.59;;;17.46;56.50
79331;BME280;68797;49.782;19.054;2023-06-14T12:10:51;97121.03;;;17.54;55.84
79331;BME280;68797;49.782;19.054;2023-06-14T12:13:20;97118.72;;;17.48;54.55
79331;BME280;68797;49.782;19.054;2023-06-14T12:15:58;97110.66;;;17.62;52.95
79331;BME280;68797;49.782;19.054;2023-06-14T12:18:35;97101.13;;;17.72;56.93
79331;BME280;68797;49.782;19.054;2023-06-14T12:21:08;97132.72;;;17.67;55.13
79331;BME280;68797;49.782;19.054;2023-06-14T12:23:46;97116.34;;;17.43;55.94
79331;BME280;68797;49.782;19.054;2023-06-14T12:26:20;97120.44;;;17.34;57.81
79331;BME280;68797;49.782;19.054;2023-06-14T12:29:18;97100.28;;;17.13;60.22
79331;BME280;68797;49.782;19.054;2023-06-14T12:31:55;97126.31;;;16.97;61.18
79331;BME280;68797;49.782;19.054;2023-06-14T12:34:26;97116.78;;;16.91;59.49
79331;BME280;68797;49.782;19.054;2023-06-14T12:36:54;97100.06;;;16.88;58.07
79331;BME280;68797;49.782;19.054;2023-06-14T12:39:20;97119.91;;;17.13;60.11
79331;BME280;68797;49.782;19.054;2023-06-14T12:41:47;97104.44;;;16.89;57.28
79331;BME280;68797;49.782;19.054;2023-06-14T12:44:14;97091.25;;;16.86;58.91
79331;BME280;68797;49.782;19.054;2023-06-14T12:46:42;97082.47;;;16.98;59.41
79331;BME280;68797;49.782;19.054;2023-06-14T12:49:13;97090.38;;;17.29;59.32
79331;BME280;68797;49.782;19.054;2023-06-14T12:51:42;97090.84;;;17.50;57.56
79331;BME280;68797;49.782;19.054;2023-06-14T12:54:21;97096.03;;;17.82;55.80
79331;BME280;68797;49.782;19.054;2023-06-14T12:56:52;97076.00;;;17.87;55.12
79331;BME280;68797;49.782;19.054;2023-06-14T12:59:19;97068.41;;;18.08;55.28
79331;BME280;68797;49.782;19.054;2023-06-14T13:01:45;97092.53;;;18.22;54.00
79331;BME280;68797;49.782;19.054;2023-06-14T13:04:16;97075.66;;;18.20;53.13
79331;BME280;68797;49.782;19.054;2023-06-14T13:10:56;97084.34;;;17.97;51.47
79331;BME280;68797;49.782;19.054;2023-06-14T13:13:23;97083.88;;;17.76;52.91
79331;BME280;68797;49.782;19.054;2023-06-14T13:15:50;97100.16;;;17.73;55.43
79331;BME280;68797;49.782;19.054;2023-06-14T13:18:18;97073.72;;;17.53;55.16
79331;BME280;68797;49.782;19.054;2023-06-14T13:20:49;97069.47;;;17.49;54.60
79331;BME280;68797;49.782;19.054;2023-06-14T13:23:17;97093.25;;;17.55;54.49
79331;BME280;68797;49.782;19.054;2023-06-14T13:29:42;97053.78;;;17.42;56.25
79331;BME280;68797;49.782;19.054;2023-06-14T13:32:15;97060.66;;;17.47;56.29
79331;BME280;68797;49.782;19.054;2023-06-14T13:34:41;97070.34;;;17.63;53.77
79331;BME280;68797;49.782;19.054;2023-06-14T13:37:08;97071.22;;;17.64;54.37
79331;BME280;68797;49.782;19.054;2023-06-14T13:39:34;97086.44;;;17.49;54.78
79331;BME280;68797;49.782;19.054;2023-06-14T13:42:06;97070.44;;;17.48;55.29
79331;BME280;68797;49.782;19.054;2023-06-14T13:44:39;97057.22;;;17.45;53.70
79331;BME280;68797;49.782;19.054;2023-06-14T13:47:08;97072.53;;;17.57;53.81
79331;BME280;68797;49.782;19.054;2023-06-14T13:49:38;97068.91;;;17.72;51.51
79331;BME280;68797;49.782;19.054;2023-06-14T13:52:05;97078.19;;;17.95;51.22
79331;BME280;68797;49.782;19.054;2023-06-14T13:54:35;97068.03;;;18.00;49.97
79331;BME280;68797;49.782;19.054;2023-06-14T13:57:05;97054.97;;;18.08;49.49
79331;BME280;68797;49.782;19.054;2023-06-14T13:59:33;97069.16;;;18.10;51.28
79331;BME280;68797;49.782;19.054;2023-06-14T14:02:02;97063.53;;;18.00;51.44